Time;durP1;ratioP1;P1;durP2;ratioP2;P2;SDS_P1;SDS_P2;PMS_P1;PMS_P2;Temp;Humidity;BMP_temperature;BMP_pressure;BME280_temperature;BME280_humidity;BME280_pressure;Samples;Min_cycle;Max_cycle;Signal;HPM_P1;HPM_P2
2022/01/21 00:01:32;;;;;;;9.30;2.50;;;;;;;;;;6221442;23;20016;-88
2022/01/21 00:03:58;;;;;;;8.60;1.42;;;;;;;;;;6221625;23;20095;-88
2022/01/21 00:06:24;;;;;;;4.18;1.90;;;;;;;;;;6222049;23;20012;-90
2022/01/21 00:08:51;;;;;;;13.75;2.53;;;;;;;;;;6221432;23;20386;-91
2022/01/21 00:11:18;;;;;;;9.13;2.05;;;;;;;;;;6221512;23;20023;-90
2022/01/21 00:13:44;;;;;;;6.13;1.48;;;;;;;;;;6246869;23;20020;-91
2022/01/21 00:16:12;;;;;;;5.15;1.40;;;;;;;;;;6220446;23;20480;-90
2022/01/21 00:18:40;;;;;;;9.00;2.03;;;;;;;;;;6221171;23;20020;-90
2022/01/21 00:32:07;;;;;;;15.35;2.88;;;;;;;;;;6246379;23;20030;-90
2022/01/21 00:34:33;;;;;;;14.30;1.67;;;;;;;;;;6221417;23;20016;-91
2022/01/21 00:36:59;;;;;;;5.68;2.15;;;;;;;;;;6221498;23;20035;-91
2022/01/21 00:39:28;;;;;;;12.10;2.53;;;;;;;;;;6245841;23;20348;-90
2022/01/21 00:44:23;;;;;;;13.20;2.35;;;;;;;;;;6245778;23;20457;-91
2022/01/21 00:46:49;;;;;;;4.95;1.60;;;;;;;;;;6246396;23;20024;-91
2022/01/21 00:49:16;;;;;;;5.28;1.88;;;;;;;;;;6246938;23;20016;-90
2022/01/21 00:51:42;;;;;;;10.95;1.92;;;;;;;;;;6221581;23;20076;-90
2022/01/21 00:54:09;;;;;;;6.32;1.90;;;;;;;;;;6247756;23;20012;-88
2022/01/21 00:56:35;;;;;;;12.43;1.73;;;;;;;;;;6221853;23;20361;-88
2022/01/21 00:59:01;;;;;;;8.18;1.65;;;;;;;;;;6220715;23;20066;-88
2022/01/21 01:01:27;;;;;;;7.72;2.55;;;;;;;;;;6246220;23;20350;-88
2022/01/21 01:03:53;;;;;;;7.55;1.88;;;;;;;;;;6220742;23;20020;-89
2022/01/21 01:06:19;;;;;;;3.88;1.88;;;;;;;;;;6220880;23;20568;-88
2022/01/21 01:08:48;;;;;;;15.63;2.17;;;;;;;;;;6220746;23;20020;-89
2022/01/21 01:11:24;;;;;;;13.80;2.10;;;;;;;;;;6246192;23;20020;-89
2022/01/21 01:22:05;;;;;;;;;;;3.20;99.90;;;;;;6190143;23;20024;-88
2022/01/21 01:27:37;;;;;;;5.95;1.30;;;;;;;;;;6189009;23;20105;-88
2022/01/21 01:30:03;;;;;;;3.40;1.10;;;;;;;;;;6214844;23;20051;-88
2022/01/21 01:32:30;;;;;;;5.43;2.22;;;;;;;;;;6189631;23;20023;-88
2022/01/21 01:34:56;;;;;;;5.07;0.90;;;;;;;;;;6189968;23;20009;-88
2022/01/21 01:40:19;;;;;;;7.90;1.50;;;;;;;;;;6072277;23;20052;-90
2022/01/21 01:50:55;;;;;;;9.60;1.30;;;;;;;;;;5986786;23;20024;-91
2022/01/21 01:53:25;;;;;;;7.78;1.50;;;;;;;;;;5973573;23;20026;-90
2022/01/21 01:55:51;;;;;;;6.43;2.47;;;;;;;;;;5991235;23;20478;-90
2022/01/21 01:58:17;;;;;;;4.72;1.30;;;;;;;;;;5991572;23;20023;-89
2022/01/21 02:00:43;;;;;;;17.83;2.70;;;;;;;;;;5991212;23;20481;-92
2022/01/21 02:03:10;;;;;;;4.32;2.47;;;;;;;;;;5991289;23;20015;-91
2022/01/21 02:05:36;;;;;;;7.32;1.60;;;;;;;;;;6038156;23;20023;-90
2022/01/21 02:08:02;;;;;;;3.45;1.20;;;;;;;;;;5991057;23;20458;-90
2022/01/21 02:10:28;;;;;;;5.38;1.60;;;;;;;;;;6038624;23;20027;-92
2022/01/21 02:13:05;;;;;;;6.13;1.60;;;;;;;;;;6038280;23;20024;-88
2022/01/21 02:15:34;;;;;;;8.10;1.67;;;;;;;;;;5991058;23;20019;-88
2022/01/21 02:23:30;;;;;;;7.05;1.60;;;;;;;;;;6229440;23;20016;-88
2022/01/21 02:25:56;;;;;;;4.80;1.63;;;;;;;;;;6245309;23;20076;-88
2022/01/21 02:28:22;;;;;;;1.63;1.20;;;;;;;;;;6220278;23;20381;-88
2022/01/21 02:30:52;;;;;;;8.25;1.50;;;;;;;;;;6220230;23;20319;-88
2022/01/21 02:33:18;;;;;;;5.60;2.00;;;;;;;;;;6220054;23;20020;-88
2022/01/21 02:35:44;;;;;;;4.85;1.65;;;;;;;;;;6220311;23;20051;-89
2022/01/21 02:38:11;;;;;;;8.50;2.08;;;;;;;;;;6246350;23;20055;-89
2022/01/21 02:40:37;;;;;;;7.22;1.88;;;;;;;;;;6247110;23;20019;-90
2022/01/21 02:43:03;;;;;;;9.10;1.27;;;;;;;;;;6222042;23;20453;-91
2022/01/21 02:45:29;;;;;;;7.57;1.20;;;;;;;;;;6222012;23;20090;-90
2022/01/21 02:47:55;;;;;;;4.22;1.42;;;;;;;;;;6222149;23;20454;-89
2022/01/21 02:50:22;;;;;;;4.55;0.98;;;;;;;;;;6247724;23;20559;-89
2022/01/21 02:53:07;;;;;;;13.07;2.60;;;;;;;;;;6222716;23;20020;-89
2022/01/21 02:55:33;;;;;;;4.22;1.58;;;;;;;;;;6222227;23;20085;-88
2022/01/21 02:57:59;;;;;;;9.48;1.88;;;;;;;;;;6247135;23;20067;-88
2022/01/21 03:00:25;;;;;;;6.00;2.08;;;;;;;;;;6221967;23;20027;-88
2022/01/21 03:02:51;;;;;;;5.68;1.45;;;;;;;;;;6222255;23;20035;-89
2022/01/21 03:05:18;;;;;;;6.63;1.60;;;;;;;;;;6221745;23;20020;-89
2022/01/21 03:07:45;;;;;;;4.55;1.17;;;;;;;;;;6247225;23;20056;-88
2022/01/21 03:10:12;;;;;;;9.75;2.15;;;;;;;;;;6222101;23;20016;-88
2022/01/21 03:12:38;;;;;;;6.75;1.58;;;;;;;;;;6221742;23;20084;-88
2022/01/21 03:15:04;;;;;;;7.28;2.03;;;;;;;;;;6221872;23;20020;-88
2022/01/21 03:17:30;;;;;;;7.47;1.60;;;;;;;;;;6221753;23;20093;-88
2022/01/21 03:19:56;;;;;;;8.15;1.98;;;;;;;;;;6221914;23;20048;-88
2022/01/21 03:22:22;;;;;;;17.23;4.10;;;;;;;;;;6221320;23;20016;-88
2022/01/21 03:24:48;;;;;;;2.80;1.33;;;;;;;;;;6221841;23;20014;-88
2022/01/21 03:27:16;;;;;;;10.68;2.60;;;;;;;;;;6221682;23;20361;-88
2022/01/21 03:29:42;;;;;;;6.65;1.52;;;;;;;;;;6221575;23;20095;-88
2022/01/21 03:32:08;;;;;;;10.95;1.55;;;;;;;;;;6222119;23;20016;-88
2022/01/21 03:34:34;;;;;;;6.88;2.78;;;;;;;;;;6221971;23;20016;-88
2022/01/21 03:37:00;;;;;;;3.33;1.50;;;;;;;;;;6221641;23;20016;-88
2022/01/21 03:39:26;;;;;;;14.10;1.60;;;;;;;;;;6246934;23;20472;-88
2022/01/21 03:41:53;;;;;;;9.48;1.60;;;;;;;;;;6246243;23;20038;-88
2022/01/21 03:44:19;;;;;;;6.82;2.60;;;;;;;;;;6246256;23;20100;-88
2022/01/21 03:46:45;;;;;;;3.47;1.60;;;;;;;;;;6246673;23;20052;-89
2022/01/21 03:49:12;;;;;;;7.95;1.65;;;;;;;;;;6221017;23;20020;-89
2022/01/21 03:51:38;;;;;;;9.07;2.83;;;;;;;;;;6246861;23;20020;-90
2022/01/21 03:54:04;;;;;;;14.88;2.97;;;;;;;;;;6221409;23;20078;-89
2022/01/21 03:56:30;;;;;;;10.85;1.67;;;;;;;;;;6220969;23;20078;-90
2022/01/21 03:58:56;;;;;;;11.50;2.00;;;;;;;;;;6246905;23;20020;-89
2022/01/21 04:01:24;;;;;;;12.65;2.65;;;;;;;;;;6221098;23;20012;-89
2022/01/21 04:03:50;;;;;;;7.95;1.67;;;;;;;;;;6221219;23;20409;-90
2022/01/21 04:06:17;;;;;;;8.82;2.53;;;;;;;;;;6220609;23;20044;-89
2022/01/21 04:08:43;;;;;;;4.82;1.75;;;;;;;;;;6220897;23;20020;-90
2022/01/21 04:11:09;;;;;;;6.43;1.95;;;;;;;;;;6221329;23;20012;-89
2022/01/21 04:13:35;;;;;;;15.30;2.22;;;;;;;;;;6222054;23;20024;-90
2022/01/21 04:16:01;;;;;;;17.48;1.90;;;;;;;;;;6221033;23;20016;-90
2022/01/21 04:18:27;;;;;;;5.75;1.73;;;;;;;;;;6220492;23;20016;-89
2022/01/21 04:20:54;;;;;;;3.10;1.38;;;;;;;;;;6220372;23;20020;-89
2022/01/21 04:23:20;;;;;;;17.40;2.40;;;;;;;;;;6220509;23;20027;-89
2022/01/21 04:25:47;;;;;;;5.68;1.20;;;;;;;;;;6221443;23;20020;-89
2022/01/21 04:28:13;;;;;;;5.70;1.88;;;;;;;;;;6246252;23;20346;-90
2022/01/21 04:30:39;;;;;;;8.18;2.35;;;;;;;;;;6247547;23;20016;-89
2022/01/21 04:33:05;;;;;;;9.02;1.15;;;;;;;;;;6247007;23;20319;-89
2022/01/21 04:35:33;;;;;;;1.17;0.70;;;;;;;;;;6245931;23;20023;-89
2022/01/21 04:38:05;;;;;;;3.10;0.95;;;;;;;;;;6222421;23;20016;-89
2022/01/21 04:40:35;;;;;;;3.00;1.33;;;;;;;;;;6246029;23;20016;-89
2022/01/21 04:48:32;;;;;;;10.00;1.30;;;;;;;;;;6245752;23;20024;-89
2022/01/21 04:51:12;;;;;;;2.65;1.98;;;;;;;;;;6220893;23;20018;-90
2022/01/21 04:53:38;;;;;;;7.03;1.17;;;;;;;;;;6220980;23;20020;-88
2022/01/21 04:56:05;;;;;;;5.82;1.23;;;;;;;;;;6246491;23;20349;-89
2022/01/21 04:58:34;;;;;;;3.20;1.08;;;;;;;;;;6221054;23;20450;-90
2022/01/21 05:01:04;;;;;;;8.70;2.00;;;;;;;;;;6221434;23;20024;-92
2022/01/21 05:03:30;;;;;;;6.50;1.88;;;;;;;;;;6223114;23;20055;-91
2022/01/21 05:05:56;;;;;;;14.13;1.75;;;;;;;;;;6222633;23;20020;-90
2022/01/21 05:08:30;;;;;;;7.72;1.33;;;;;;;;;;6220957;23;20020;-93
2022/01/21 05:10:56;;;;;;;6.50;2.13;;;;;;;;;;6221159;23;20353;-90
2022/01/21 05:13:26;;;;;;;11.15;1.52;;;;;;;;;;6245741;23;20346;-91
2022/01/21 05:16:03;;;;;;;6.32;3.05;;;;;;;;;;6221204;23;20505;-91
2022/01/21 05:18:29;;;;;;;6.88;1.55;;;;;;;;;;6220522;23;20016;-91
2022/01/21 05:20:56;;;;;;;20.25;3.15;;;;;;;;;;6221290;23;20524;-90
2022/01/21 05:23:23;;;;;;;12.98;1.85;;;;;;;;;;6246488;23;20022;-90
2022/01/21 05:25:49;;;;;;;7.65;1.52;;;;;;;;;;6246073;23;20081;-90
2022/01/21 05:28:15;;;;;;;11.52;1.88;;;;;;;;;;6220081;23;20457;-90
2022/01/21 05:30:41;;;;;;;12.75;1.50;;;;;;;;;;6220589;23;20358;-91
2022/01/21 05:33:07;;;;;;;10.25;2.65;;;;;;;;;;6246438;23;20480;-91
2022/01/21 05:35:33;;;;;;;3.97;1.05;;;;;;;;;;6220248;23;20012;-91
2022/01/21 05:37:59;;;;;;;3.70;1.38;;;;;;;;;;6246396;23;20054;-90
2022/01/21 05:40:25;;;;;;;5.72;1.50;;;;;;;;;;6221019;23;20020;-90
2022/01/21 05:42:52;;;;;;;7.82;1.33;;;;;;;;;;6220883;23;20350;-91
2022/01/21 05:48:03;;;;;;;5.70;1.60;;;;;;;;;;6245966;23;20194;-90
2022/01/21 05:50:29;;;;;;;15.55;1.92;;;;;;;;;;6221045;23;20449;-90
2022/01/21 05:52:56;;;;;;;6.75;2.03;;;;;;;;;;6246052;23;20393;-89
2022/01/21 05:55:22;;;;;;;7.97;1.70;;;;;;;;;;6220590;23;20020;-91
2022/01/21 05:57:49;;;;;;;6.82;1.77;;;;;;;;;;6220525;23;20059;-90
2022/01/21 06:00:15;;;;;;;3.67;1.92;;;;;;;;;;6220343;23;20102;-90
2022/01/21 06:02:41;;;;;;;14.65;4.85;;;;;;;;;;6220706;23;20442;-92
2022/01/21 06:05:08;;;;;;;10.45;1.95;;;;;;;;;;6245904;23;20012;-90
2022/01/21 06:07:34;;;;;;;4.40;1.63;;;;;;;;;;6220397;23;20020;-90
2022/01/21 06:10:00;;;;;;;4.38;1.27;;;;;;;;;;6245921;23;20048;-90
2022/01/21 06:12:26;;;;;;;12.23;1.98;;;;;;;;;;6221391;23;20016;-90
2022/01/21 06:14:53;;;;;;;4.30;1.15;;;;;;;;;;6223897;23;20091;-90
2022/01/21 06:17:19;;;;;;;5.25;2.20;;;;;;;;;;6223753;23;20506;-89
2022/01/21 06:19:45;;;;;;;11.05;2.17;;;;;;;;;;6223833;23;20477;-89
2022/01/21 06:22:12;;;;;;;3.38;1.70;;;;;;;;;;6224126;23;20020;-90
2022/01/21 06:24:39;;;;;;;23.92;3.97;;;;;;;;;;6222660;23;20430;-90
2022/01/21 06:27:05;;;;;;;13.55;1.75;;;;;;;;;;6223297;23;20019;-89
2022/01/21 06:29:31;;;;;;;13.27;2.20;;;;;;;;;;6248087;23;20095;-90
2022/01/21 06:31:57;;;;;;;14.57;2.38;;;;;;;;;;6222774;23;20449;-90
2022/01/21 06:34:23;;;;;;;11.32;2.42;;;;;;;;;;6223572;23;20013;-91
2022/01/21 06:36:50;;;;;;;7.03;2.25;;;;;;;;;;6222922;23;20020;-89
2022/01/21 06:39:16;;;;;;;6.43;2.90;;;;;;;;;;6222883;23;20391;-89
2022/01/21 06:41:44;;;;;;;6.72;2.13;;;;;;;;;;6222569;23;20051;-89
2022/01/21 06:44:10;;;;;;;16.30;2.47;;;;;;;;;;6222800;23;20013;-90
2022/01/21 06:46:36;;;;;;;6.60;2.25;;;;;;;;;;6247883;23;20012;-90
2022/01/21 06:49:02;;;;;;;8.57;2.65;;;;;;;;;;6223096;23;20021;-91
2022/01/21 06:51:28;;;;;;;12.95;2.00;;;;;;;;;;6223066;23;20319;-89
2022/01/21 06:53:55;;;;;;;17.15;1.95;;;;;;;;;;6223015;23;20514;-89
2022/01/21 06:56:21;;;;;;;13.00;2.58;;;;;;;;;;6223221;23;20023;-89
2022/01/21 06:58:47;;;;;;;16.27;2.42;;;;;;;;;;6222792;23;20016;-89
2022/01/21 07:01:13;;;;;;;12.10;2.72;;;;;;;;;;6222482;23;20027;-89
2022/01/21 07:03:39;;;;;;;7.45;1.83;;;;;;;;;;6223119;23;20016;-90
2022/01/21 07:06:05;;;;;;;8.73;2.00;;;;;;;;;;6249047;23;20023;-92
2022/01/21 07:08:34;;;;;;;7.43;2.20;;;;;;;;;;6223311;23;20020;-89
2022/01/21 07:11:00;;;;;;;10.27;2.05;;;;;;;;;;6249041;23;20012;-89
2022/01/21 07:13:26;;;;;;;9.38;2.65;;;;;;;;;;6222867;23;20119;-89
2022/01/21 07:15:52;;;;;;;5.82;2.83;;;;;;;;;;6223441;23;20043;-90
2022/01/21 07:18:18;;;;;;;12.13;1.98;;;;;;;;;;6223048;23;20019;-89
2022/01/21 07:20:44;;;;;;;9.38;2.25;;;;;;;;;;6248313;23;20346;-87
2022/01/21 07:23:10;;;;;;;6.05;1.65;;;;;;;;;;6224372;23;20017;-87
2022/01/21 07:25:37;;;;;;;11.88;2.47;;;;;;;;;;6220984;23;20016;-87
2022/01/21 07:28:04;;;;;;;7.03;1.60;;;;;;;;;;6247308;23;20026;-87
2022/01/21 07:30:31;;;;;;;15.70;2.35;;;;;;;;;;6222022;23;20012;-87
2022/01/21 07:32:57;;;;;;;12.57;2.03;;;;;;;;;;6221557;23;20098;-87
2022/01/21 07:35:23;;;;;;;11.05;2.17;;;;;;;;;;6221691;23;20017;-87
2022/01/21 07:37:49;;;;;;;12.73;2.47;;;;;;;;;;6246183;23;20012;-85
2022/01/21 07:40:15;;;;;;;12.80;2.85;;;;;;;;;;6246067;23;20486;-87
2022/01/21 07:42:41;;;;;;;8.40;2.17;;;;;;;;;;6222693;23;20044;-85
2022/01/21 07:45:07;;;;;;;15.60;2.28;;;;;;;;;;6248126;23;20046;-91
2022/01/21 07:47:33;;;;;;;9.10;1.63;;;;;;;;;;6223414;23;20021;-90
2022/01/21 07:49:59;;;;;;;5.30;2.05;;;;;;;;;;6223682;23;20110;-90
2022/01/21 07:52:26;;;;;;;6.70;1.75;;;;;;;;;;6250138;23;20016;-91
2022/01/21 07:54:52;;;;;;;15.75;2.70;;;;;;;;;;6249876;23;20080;-90
2022/01/21 07:57:18;;;;;;;5.97;2.47;;;;;;;;;;6223913;23;20345;-91
2022/01/21 07:59:44;;;;;;;7.50;2.83;;;;;;;;;;6249083;23;20341;-90
2022/01/21 08:02:10;;;;;;;9.65;2.22;;;;;;;;;;6222323;23;20016;-90
2022/01/21 08:04:37;;;;;;;16.05;2.72;;;;;;;;;;6223175;23;20009;-92
2022/01/21 08:07:03;;;;;;;9.63;2.30;;;;;;;;;;6248109;23;20095;-91
2022/01/21 08:09:29;;;;;;;14.23;3.30;;;;;;;;;;6249353;23;20464;-89
2022/01/21 08:11:55;;;;;;;6.97;2.60;;;;;;;;;;6224204;23;20027;-91
2022/01/21 08:14:22;;;;;;;16.08;3.08;;;;;;;;;;6223968;23;20059;-89
2022/01/21 08:16:49;;;;;;;16.88;3.38;;;;;;;;;;6251060;23;20409;-88
2022/01/21 08:19:16;;;;;;;15.23;3.20;;;;;;;;;;6250394;23;20024;-89
2022/01/21 08:21:44;;;;;;;19.58;3.25;;;;;;;;;;6224473;23;20095;-89
2022/01/21 08:24:10;;;;;;;12.13;3.28;;;;;;;;;;6248765;23;20016;-88
2022/01/21 08:26:40;;;;;;;7.93;3.00;;;;;;;;;;6225936;23;20017;-92
2022/01/21 08:29:06;;;;;;;25.45;3.10;;;;;;;;;;6225236;23;20055;-91
2022/01/21 08:31:33;;;;;;;8.93;2.45;;;;;;;;;;6249682;23;20016;-90
2022/01/21 08:33:59;;;;;;;20.05;3.85;;;;;;;;;;6224696;23;20063;-91
2022/01/21 08:36:26;;;;;;;12.05;3.10;;;;;;;;;;6222934;23;20335;-89
2022/01/21 08:38:53;;;;;;;11.32;3.40;;;;;;;;;;6223930;23;20027;-89
2022/01/21 08:41:19;;;;;;;9.90;2.65;;;;;;;;;;6224653;23;20026;-90
2022/01/21 08:43:45;;;;;;;19.33;3.90;;;;;;;;;;6251435;23;20052;-92
2022/01/21 08:46:12;;;;;;;14.85;3.58;;;;;;;;;;6249695;23;20039;-92
2022/01/21 08:48:38;;;;;;;13.15;3.78;;;;;;;;;;6223350;23;20038;-91
2022/01/21 08:51:12;;;;;;;10.98;3.28;;;;;;;;;;6225673;23;20023;-91
2022/01/21 08:53:41;;;;;;;16.00;4.85;;;;;;;;;;6225516;23;20016;-90
2022/01/21 08:56:17;;;;;;;22.08;3.28;;;;;;;;;;6225710;23;20326;-89
2022/01/21 08:58:44;;;;;;;18.23;4.30;;;;;;;;;;6252429;23;20097;-90
2022/01/21 09:01:11;;;;;;;18.88;4.78;;;;;;;;;;6250487;23;20337;-91
2022/01/21 09:03:38;;;;;;;19.33;4.13;;;;;;;;;;6250575;23;20019;-93
2022/01/21 09:06:05;;;;;;;15.63;4.40;;;;;;;;;;6225051;23;20019;-93
2022/01/21 09:08:31;;;;;;;15.65;3.67;;;;;;;;;;6226263;23;20090;-92
2022/01/21 09:10:58;;;;;;;20.92;3.10;;;;;;;;;;6226296;23;20031;-92
2022/01/21 09:13:27;;;;;;;10.25;3.10;;;;;;;;;;6248882;23;20067;-92
2022/01/21 09:15:57;;;;;;;16.20;2.92;;;;;;;;;;6222363;23;20033;-93
2022/01/21 09:18:25;;;;;;;14.60;3.70;;;;;;;;;;6247609;23;20052;-92
2022/01/21 09:20:52;;;;;;;14.30;3.10;;;;;;;;;;6224440;23;20020;-93
2022/01/21 09:23:18;;;;;;;7.80;2.10;;;;;;;;;;6223304;23;20016;-93
2022/01/21 09:25:45;;;;;;;11.68;2.85;;;;;;;;;;6222653;23;20020;-91
2022/01/21 09:28:11;;;;;;;6.38;2.63;;;;;;;;;;6221153;23;20016;-91
2022/01/21 09:30:37;;;;;;;2.45;1.60;;;;;;;;;;6222195;23;20099;-91
2022/01/21 09:33:04;;;;;;;4.82;2.38;;;;;;;;;;6221113;23;20092;-92
2022/01/21 09:35:30;;;;;;;10.07;2.08;;;;;;;;;;6219658;23;20341;-91
2022/01/21 09:37:56;;;;;;;9.00;2.30;;;;;;;;;;6246075;23;20069;-92
2022/01/21 09:40:29;;;;;;;11.52;1.92;;;;;;;;;;6248015;23;20018;-91
2022/01/21 09:42:55;;;;;;;10.75;2.78;;;;;;;;;;6249437;23;20020;-91
2022/01/21 09:45:27;;;;;;;13.80;3.20;;;;;;;;;;6226327;23;20024;-91
2022/01/21 09:47:55;;;;;;;16.05;2.17;;;;;;;;;;6225338;23;20039;-92
2022/01/21 09:50:22;;;;;;;9.65;2.25;;;;;;;;;;6249142;23;20016;-88
2022/01/21 09:52:48;;;;;;;7.05;2.47;;;;;;;;;;6221266;23;20505;-89
2022/01/21 09:55:17;;;;;;;12.73;1.90;;;;;;;;;;6222570;23;20016;-88
2022/01/21 09:57:56;;;;;;;8.52;2.35;;;;;;;;;;6221489;23;20013;-89
2022/01/21 10:00:24;;;;;;;14.20;3.00;;;;;;;;;;6247510;23;20020;-88
2022/01/21 10:02:50;;;;;;;20.70;2.85;;;;;;;;;;6219680;23;20012;-88
2022/01/21 10:05:16;;;;;;;14.80;2.90;;;;;;;;;;6246677;23;20020;-88
2022/01/21 10:07:45;;;;;;;14.45;2.58;;;;;;;;;;6245691;23;20099;-89
2022/01/21 10:10:12;;;;;;;13.43;2.97;;;;;;;;;;6220010;23;20345;-88
2022/01/21 10:12:40;;;;;;;17.33;3.50;;;;;;;;;;6246036;23;20020;-89
2022/01/21 10:15:09;;;;;;;12.38;3.38;;;;;;;;;;6220597;23;20426;-88
2022/01/21 10:17:36;;;;;;;11.57;3.67;;;;;;;;;;6225777;22;20019;-88
2022/01/21 10:20:31;;;;;;;11.95;3.13;;;;;;;;;;6252392;22;20031;-88
2022/01/21 10:23:08;;;;;;;17.20;3.97;;;;;;;;;;6135787;23;20140;-89
2022/01/21 10:25:35;;;;;;;20.10;2.38;;;;;;;;;;6161097;23;20028;-89
2022/01/21 10:28:10;;;;;;;12.68;2.90;;;;;;;;;;6160607;23;20024;-89
2022/01/21 10:30:42;;;;;;;17.02;3.25;;;;;;;;;;6160192;23;20028;-90
2022/01/21 10:33:38;;;;;;;14.45;2.97;;;;;;;;;;6136684;23;20084;-93
2022/01/21 10:36:15;;;;;;;10.20;2.60;;;;;;;;;;6068139;23;20025;-91
2022/01/21 10:38:42;;;;;;;9.15;2.13;;;;;;;;;;6020703;23;20015;-93
2022/01/21 10:41:13;;;;;;;11.18;2.40;;;;;;;;;;6021011;23;20022;-89
2022/01/21 10:43:39;;;;;;;17.30;2.83;;;;;;;;;;6045796;23;20112;-89
2022/01/21 10:46:06;;;;;;;9.15;2.67;;;;;;;;;;6034041;22;20026;-91
2022/01/21 10:48:52;;;;;;;10.93;2.17;;;;;;;;;;6256517;22;20023;-91
2022/01/21 10:51:25;;;;;;;7.07;2.13;;;;;;;;;;6235498;22;20016;-88
2022/01/21 10:53:51;;;;;;;11.18;3.63;;;;;;;;;;6257374;22;20069;-89
2022/01/21 10:56:18;;;;;;;21.02;2.55;;;;;;;;;;6239444;22;20019;-91
2022/01/21 10:58:50;;;;;;;9.45;3.28;;;;;;;;;;6227375;22;20011;-92
2022/01/21 11:01:21;;;;;;;11.20;2.22;;;;;;;;;;6231239;22;20432;-91
2022/01/21 11:04:10;;;;;;;15.15;2.35;;;;;;;;;;6258485;22;20022;-92
2022/01/21 11:06:51;;;;;;;10.18;2.65;;;;;;;;;;6260411;22;20022;-93
2022/01/21 11:09:17;;;;;;;3.97;2.03;;;;;;;;;;6260084;22;20453;-90
2022/01/21 11:11:44;;;;;;;8.80;2.00;;;;;;;;;;6260364;22;20012;-92
2022/01/21 11:14:11;;;;;;;9.48;2.42;;;;;;;;;;6287425;22;20076;-91
2022/01/21 11:16:40;;;;;;;7.75;2.13;;;;;;;;;;6288917;22;20478;-92
2022/01/21 11:19:12;;;;;;;8.02;1.90;;;;;;;;;;6260484;22;20330;-92
2022/01/21 11:21:39;;;;;;;17.15;3.78;;;;;;;;;;6313040;22;20019;-90
2022/01/21 11:24:09;;;;;;;7.05;3.08;;;;;;;;;;6286483;22;20022;-92
2022/01/21 11:26:35;;;;;;;14.75;2.97;;;;;;;;;;6285893;22;20061;-93
2022/01/21 11:29:02;;;;;;;11.80;2.13;;;;;;;;;;6286452;22;20067;-92
2022/01/21 11:31:29;;;;;;;11.35;2.58;;;;;;;;;;6285341;22;20333;-90
2022/01/21 11:33:58;;;;;;;8.18;1.90;;;;;;;;;;6286036;22;20015;-91
2022/01/21 11:39:11;;;;;;;17.02;1.90;;;;;;;;;;6284579;22;20066;-90
2022/01/21 11:41:41;;;;;;;13.43;2.58;;;;;;;;;;6285914;22;20015;-92
2022/01/21 11:44:07;;;;;;;10.48;3.03;;;;;;;;;;6286370;22;20023;-92
2022/01/21 11:46:40;;;;;;;9.95;2.72;;;;;;;;;;6260002;22;20011;-90
2022/01/21 11:49:17;;;;;;;11.73;2.75;;;;;;;;;;6259235;22;20026;-90
2022/01/21 11:51:43;;;;;;;10.35;2.55;;;;;;;;;;6259648;22;20042;-92
2022/01/21 11:54:13;;;;;;;18.58;3.22;;;;;;;;;;6285199;22;20015;-91
2022/01/21 11:56:49;;;;;;;13.27;2.83;;;;;;;;;;6260071;22;20047;-90
2022/01/21 11:59:30;;;;;;;5.53;1.73;;;;;;;;;;6229081;22;20015;-91
2022/01/21 12:02:21;;;;;;;6.97;1.75;;;;;;;;;;6249663;23;20016;-89
2022/01/21 12:04:50;;;;;;;5.78;2.22;;;;;;;;;;6133153;23;20041;-91
2022/01/21 12:07:34;;;;;;;10.55;2.30;;;;;;;;;;6131864;23;20035;-91
2022/01/21 12:10:03;;;;;;;;;;;7.20;99.90;;;;;;6108806;23;20022;-91
2022/01/21 12:12:48;;;;;;;8.30;2.33;;;;;;;;;;6107160;23;19916;-91
2022/01/21 12:15:26;;;;;;;6.75;2.17;;;;;;;;;;6107130;23;20021;-91
2022/01/21 12:18:21;;;;;;;10.93;2.05;;;;;;;;;;6108006;23;20026;-90
2022/01/21 12:20:47;;;;;;;8.75;3.05;;;;;;;;;;6108487;23;20028;-88
2022/01/21 12:23:14;;;;;;;8.43;2.35;;;;;;;;;;6107704;23;20013;-89
2022/01/21 12:25:59;;;;;;;12.93;2.33;;;;;;;;;;6107621;23;20021;-89
2022/01/21 12:28:25;;;;;;;26.02;3.22;;;;;;;;;;6131970;23;20022;-88
2022/01/21 12:30:55;;;;;;;9.15;1.70;;;;;;;;;;6132371;23;20014;-89
2022/01/21 12:33:23;;;;;;;11.55;2.78;;;;;;;;;;6131902;23;20021;-88
2022/01/21 12:35:56;;;;;;;12.25;1.95;;;;;;;;;;6131408;23;20031;-89
2022/01/21 12:41:00;;;;;;;6.88;1.75;;;;;;;;;;6172054;23;20473;-90
2022/01/21 12:43:46;;;;;;;10.68;2.20;;;;;;;;;;6223280;23;20468;-90
2022/01/21 12:46:16;;;;;;;16.67;2.88;;;;;;;;;;6222328;23;20031;-88
2022/01/21 12:48:44;;;;;;;7.63;1.70;;;;;;;;;;6247174;23;20020;-89
2022/01/21 12:51:16;;;;;;;7.80;2.50;;;;;;;;;;6222952;23;20012;-87
2022/01/21 12:56:50;;;;;;;7.43;2.72;;;;;;;;;;6248357;22;20028;-89
2022/01/21 12:59:18;;;;;;;12.80;2.55;;;;;;;;;;6222665;23;20012;-88
2022/01/21 13:01:45;;;;;;;12.88;3.15;;;;;;;;;;6223170;23;20023;-89
2022/01/21 13:04:27;;;;;;;16.98;5.20;;;;;;;;;;6247736;23;20513;-88
2022/01/21 13:07:04;;;;;;;14.07;2.20;;;;;;;;;;6247524;23;20066;-88
2022/01/21 13:09:54;;;;;;;22.00;4.35;;;;;;;;;;6247412;23;20016;-88
2022/01/21 13:12:23;;;;;;;10.63;2.28;;;;;;;;;;6232239;23;20027;-91
2022/01/21 13:14:55;;;;;;;13.55;2.40;;;;;;;;;;6247576;23;20020;-91
2022/01/21 13:17:21;;;;;;;20.67;3.63;;;;;;;;;;6247110;23;20134;-92
2022/01/21 13:19:49;;;;;;;19.42;3.55;;;;;;;;;;6223200;23;20524;-90
2022/01/21 13:22:15;;;;;;;19.52;2.88;;;;;;;;;;6222190;23;20020;-90
2022/01/21 13:24:51;;;;;;;11.02;3.38;;;;;;;;;;6248926;23;20047;-91
2022/01/21 13:27:17;;;;;;;16.08;2.85;;;;;;;;;;6248002;23;20099;-92
2022/01/21 13:29:44;;;;;;;27.33;3.20;;;;;;;;;;6247847;23;20020;-89
2022/01/21 13:32:10;;;;;;;20.58;4.53;;;;;;;;;;6248862;23;20017;-91
2022/01/21 13:34:40;;;;;;;24.20;2.88;;;;;;;;;;6249336;23;20032;-90
2022/01/21 13:37:07;;;;;;;5.93;2.20;;;;;;;;;;6223508;23;20016;-90
2022/01/21 13:39:38;;;;;;;9.88;3.13;;;;;;;;;;6223630;23;20091;-91
2022/01/21 13:42:10;;;;;;;12.68;3.47;;;;;;;;;;6249446;23;20102;-89
2022/01/21 13:44:41;;;;;;;14.00;2.05;;;;;;;;;;6249075;23;20012;-89
2022/01/21 13:47:22;;;;;;;12.15;2.60;;;;;;;;;;6248907;23;20020;-91
2022/01/21 13:49:48;;;;;;;11.57;2.85;;;;;;;;;;6223793;23;20094;-90
2022/01/21 13:52:17;;;;;;;11.23;2.72;;;;;;;;;;6223255;23;20020;-89
2022/01/21 13:54:44;;;;;;;21.10;6.50;;;;;;;;;;6222634;22;20017;-90
2022/01/21 13:57:11;;;;;;;12.15;3.33;;;;;;;;;;6246964;23;20052;-92
2022/01/21 13:59:43;;;;;;;7.55;2.30;;;;;;;;;;6221397;23;20016;-91
2022/01/21 14:02:11;;;;;;;13.00;3.80;;;;;;;;;;6246755;23;20105;-90
2022/01/21 14:04:38;;;;;;;9.48;3.15;;;;;;;;;;6247412;23;20028;-89
2022/01/21 14:07:19;;;;;;;19.27;3.03;;;;;;;;;;6247328;23;20035;-91
2022/01/21 14:09:46;;;;;;;7.15;2.60;;;;;;;;;;6222135;23;20030;-90
2022/01/21 14:12:12;;;;;;;16.58;4.35;;;;;;;;;;6247291;23;20012;-89
2022/01/21 14:14:39;;;;;;;14.30;5.15;;;;;;;;;;6222273;23;20475;-89
2022/01/21 14:17:05;;;;;;;7.55;3.05;;;;;;;;;;6222141;23;20016;-89
2022/01/21 14:19:32;;;;;;;17.83;4.03;;;;;;;;;;6246371;23;20484;-90
2022/01/21 14:22:02;;;;;;;16.38;2.92;;;;;;;;;;6222041;23;20027;-91
2022/01/21 14:24:29;;;;;;;6.78;2.70;;;;;;;;;;6245923;23;20023;-89
2022/01/21 14:26:59;;;;;;;18.98;3.38;;;;;;;;;;6222274;23;20019;-89
2022/01/21 14:29:31;;;;;;;13.50;2.88;;;;;;;;;;6221534;23;20016;-90
2022/01/21 14:32:04;;;;;;;14.93;3.67;;;;;;;;;;6248661;23;20086;-89
2022/01/21 14:34:30;;;;;;;14.45;3.00;;;;;;;;;;6248544;23;20016;-90
2022/01/21 14:37:06;;;;;;;16.75;2.75;;;;;;;;;;6250168;23;20327;-90
2022/01/21 14:39:51;;;;;;;11.77;2.42;;;;;;;;;;6223557;23;20012;-90
2022/01/21 14:42:27;;;;;;;4.03;2.08;;;;;;;;;;6223714;23;20016;-90
2022/01/21 14:45:01;;;;;;;8.52;4.05;;;;;;;;;;6224157;23;20091;-91
2022/01/21 14:47:29;;;;;;;;;;;7.10;99.90;;;;;;6248957;23;20024;-90
2022/01/21 14:49:57;;;;;;;14.90;2.25;;;;;;;;;;6224251;23;19943;-90
2022/01/21 14:52:47;;;;;;;6.80;2.13;;;;;;;;;;6224339;23;20044;-91
2022/01/21 14:55:33;;;;;;;4.85;1.80;;;;;;;;;;6225338;23;20095;-91
2022/01/21 14:58:01;;;;;;;5.25;1.98;;;;;;;;;;6249675;23;20016;-89
2022/01/21 15:00:34;;;;;;;7.40;2.05;;;;;;;;;;6224694;23;20099;-89
2022/01/21 15:03:05;;;;;;;5.60;2.17;;;;;;;;;;6248840;23;20046;-89
2022/01/21 15:05:32;;;;;;;8.65;1.65;;;;;;;;;;6249156;23;20020;-88
2022/01/21 15:07:58;;;;;;;7.45;1.60;;;;;;;;;;6247701;23;20016;-87
2022/01/21 15:15:45;;;;;;;8.45;2.20;;;;;;;;;;6248428;23;20025;-87
2022/01/21 15:18:14;;;;;;;15.75;2.20;;;;;;;;;;6248312;23;20016;-87
2022/01/21 15:20:42;;;;;;;4.85;2.33;;;;;;;;;;6222958;23;20016;-87
2022/01/21 15:23:08;;;;;;;4.78;1.70;;;;;;;;;;6221803;23;20016;-88
2022/01/21 15:25:35;;;;;;;5.15;1.63;;;;;;;;;;6222830;23;20018;-87
2022/01/21 15:28:01;;;;;;;4.28;1.38;;;;;;;;;;6222738;23;20476;-87
2022/01/21 15:30:28;;;;;;;9.30;1.77;;;;;;;;;;6222953;23;20349;-87
2022/01/21 15:32:55;;;;;;;6.72;1.30;;;;;;;;;;6222790;23;20024;-87
2022/01/21 15:35:22;;;;;;;14.30;1.60;;;;;;;;;;6224291;23;20012;-90
2022/01/21 15:37:48;;;;;;;6.75;1.38;;;;;;;;;;6250515;23;20016;-90
2022/01/21 15:40:15;;;;;;;4.88;1.63;;;;;;;;;;6249967;23;20433;-88
2022/01/21 15:42:42;;;;;;;5.97;1.27;;;;;;;;;;6224095;23;20086;-89
2022/01/21 15:45:09;;;;;;;5.95;2.45;;;;;;;;;;6222467;23;20020;-89
2022/01/21 15:47:35;;;;;;;6.25;1.35;;;;;;;;;;6223368;23;20016;-89